createdAt,value
2017-12-12T00:01:03.635Z,9.03
2017-12-12T00:03:33.431Z,9.10
2017-12-12T00:06:02.419Z,9.37
2017-12-12T00:08:31.405Z,8.57
2017-12-12T00:11:00.826Z,9.37
2017-12-12T00:13:30.588Z,9.20
2017-12-12T00:15:59.617Z,10.33
2017-12-12T00:18:29.395Z,9.60
2017-12-12T00:20:58.760Z,9.07
2017-12-12T00:23:28.168Z,9.60
2017-12-12T00:25:57.908Z,10.30
2017-12-12T00:28:27.053Z,9.57
2017-12-12T00:30:56.473Z,11.30
2017-12-12T00:33:25.444Z,10.53
2017-12-12T00:35:55.221Z,10.23
2017-12-12T00:38:24.235Z,9.80
2017-12-12T00:40:53.255Z,10.57
2017-12-12T00:43:23.027Z,10.37
2017-12-12T00:45:52.872Z,10.20
2017-12-12T00:48:22.610Z,9.60
2017-12-12T00:50:52.383Z,9.33
2017-12-12T00:53:21.929Z,11.07
2017-12-12T00:55:51.659Z,9.17
2017-12-12T00:58:20.650Z,8.93
2017-12-12T01:00:49.650Z,10.53
2017-12-12T01:03:18.623Z,10.83
2017-12-12T01:05:48.005Z,9.90
2017-12-12T01:08:16.976Z,9.30
2017-12-12T01:10:45.982Z,10.53
2017-12-12T01:13:15.749Z,11.60
2017-12-12T01:15:44.773Z,11.13
2017-12-12T01:18:14.619Z,10.77
2017-12-12T01:20:44.365Z,11.97
2017-12-12T01:23:13.336Z,10.13
2017-12-12T01:25:42.747Z,12.00
2017-12-12T01:28:11.722Z,12.67
2017-12-12T01:30:41.112Z,12.10
2017-12-12T01:33:10.474Z,12.60
2017-12-12T01:35:39.477Z,10.93
2017-12-12T01:38:09.210Z,10.23
2017-12-12T01:40:38.633Z,10.57
2017-12-12T01:43:07.689Z,9.90
2017-12-12T01:45:36.683Z,11.37
2017-12-12T01:48:07.883Z,10.00
2017-12-12T01:50:37.604Z,9.50
2017-12-12T01:53:06.641Z,10.57
2017-12-12T01:55:35.621Z,11.57
2017-12-12T01:58:05.039Z,11.23
2017-12-12T02:00:34.028Z,10.10
2017-12-12T02:03:03.061Z,13.40
2017-12-12T02:05:32.447Z,12.17
2017-12-12T02:08:01.405Z,11.47
2017-12-12T02:10:30.808Z,10.63
2017-12-12T02:13:00.543Z,13.17
2017-12-12T02:15:29.552Z,9.97
2017-12-12T02:17:58.532Z,12.57
2017-12-12T02:20:27.497Z,12.03
2017-12-12T02:22:56.872Z,11.50
2017-12-12T02:25:26.598Z,10.47
2017-12-12T02:27:56.350Z,11.27
2017-12-12T02:30:25.356Z,11.80
2017-12-12T02:32:54.392Z,11.60
2017-12-12T02:35:23.746Z,10.87
2017-12-12T02:37:52.793Z,11.50
2017-12-12T02:40:22.517Z,10.00
2017-12-12T02:42:51.905Z,10.70
2017-12-12T02:45:21.710Z,11.13
2017-12-12T02:47:51.441Z,11.00
2017-12-12T02:50:20.906Z,10.60
2017-12-12T02:52:50.699Z,10.77
2017-12-12T02:55:19.711Z,9.47
2017-12-12T02:57:48.788Z,10.67
2017-12-12T03:00:18.533Z,9.80
2017-12-12T03:02:48.064Z,11.50
2017-12-12T03:05:17.425Z,11.03
2017-12-12T03:07:46.392Z,9.77
2017-12-12T03:10:17.009Z,8.87
2017-12-12T03:12:46.761Z,10.70
2017-12-12T03:15:17.983Z,10.30
2017-12-12T03:17:46.936Z,9.77
2017-12-12T03:20:15.907Z,9.33
2017-12-12T03:22:45.692Z,8.97
2017-12-12T03:25:15.434Z,10.47
2017-12-12T03:27:45.207Z,9.00
2017-12-12T03:30:14.411Z,8.33
2017-12-12T03:32:43.773Z,8.97
2017-12-12T03:35:12.838Z,8.70
2017-12-12T03:37:42.720Z,9.13
2017-12-12T03:40:11.734Z,8.77
2017-12-12T03:42:41.465Z,9.40
2017-12-12T03:45:10.456Z,8.63
2017-12-12T03:47:39.412Z,8.47
2017-12-12T03:50:08.446Z,8.80
2017-12-12T03:52:37.442Z,8.83
2017-12-12T03:55:06.413Z,8.30
2017-12-12T03:57:36.152Z,8.67
2017-12-12T04:00:05.116Z,8.67
2017-12-12T04:02:34.115Z,8.33
2017-12-12T04:05:03.119Z,9.13
2017-12-12T04:07:32.125Z,8.33
2017-12-12T04:10:01.891Z,8.67
2017-12-12T04:12:31.258Z,8.00
2017-12-12T04:15:00.259Z,6.97
2017-12-12T04:17:29.659Z,8.30
2017-12-12T04:19:58.648Z,8.10
2017-12-12T04:22:27.632Z,8.27
2017-12-12T04:24:57.381Z,8.93
2017-12-12T04:27:27.127Z,8.10
2017-12-12T04:29:56.097Z,7.00
2017-12-12T04:32:25.491Z,7.97
2017-12-12T04:34:55.253Z,7.27
2017-12-12T04:37:24.212Z,6.20
2017-12-12T04:39:53.196Z,7.40
2017-12-12T04:42:22.177Z,6.43
2017-12-12T04:44:51.940Z,6.83
2017-12-12T04:47:21.725Z,7.53
2017-12-12T04:49:50.746Z,6.83
2017-12-12T04:52:19.818Z,6.43
2017-12-12T04:54:48.775Z,7.77
2017-12-12T04:57:18.505Z,8.07
2017-12-12T04:59:47.889Z,6.70
2017-12-12T05:02:17.621Z,7.80
2017-12-12T05:04:46.617Z,7.20
2017-12-12T05:07:15.588Z,6.73
2017-12-12T05:09:44.937Z,6.70
2017-12-12T05:12:13.905Z,7.07
2017-12-12T05:14:43.632Z,6.37
2017-12-12T05:17:13.016Z,7.17
2017-12-12T05:19:41.981Z,7.80
2017-12-12T05:22:11.747Z,7.30
2017-12-12T05:24:40.721Z,7.73
2017-12-12T05:27:11.207Z,8.43
2017-12-12T05:29:41.774Z,9.70
2017-12-12T05:32:10.778Z,7.50
2017-12-12T05:34:39.789Z,8.37
2017-12-12T05:37:08.817Z,7.53
2017-12-12T05:39:38.610Z,7.83
2017-12-12T05:42:07.562Z,9.30
2017-12-12T05:44:37.318Z,8.17
2017-12-12T05:47:06.318Z,8.53
2017-12-12T05:49:36.082Z,7.70
2017-12-12T05:52:05.041Z,8.40
2017-12-12T05:54:34.496Z,8.40
2017-12-12T05:57:03.450Z,8.93
2017-12-12T05:59:32.453Z,7.40
2017-12-12T06:02:01.422Z,8.60
2017-12-12T06:04:30.429Z,8.73
2017-12-12T06:06:59.452Z,8.27
2017-12-12T06:09:28.404Z,9.30
2017-12-12T06:11:57.432Z,8.63
2017-12-12T06:14:26.390Z,8.47
2017-12-12T06:16:55.401Z,7.57
2017-12-12T06:19:24.416Z,8.60
2017-12-12T06:21:53.739Z,9.33
2017-12-12T06:24:23.106Z,8.93
2017-12-12T06:26:52.104Z,8.63
2017-12-12T06:29:21.100Z,7.73
2017-12-12T06:31:50.503Z,8.50
2017-12-12T06:34:19.503Z,8.47
2017-12-12T06:36:48.562Z,9.07
2017-12-12T06:39:17.558Z,7.90
2017-12-12T06:41:46.545Z,9.10
2017-12-12T06:44:15.567Z,8.63
2017-12-12T06:46:44.557Z,8.90
2017-12-12T06:49:13.962Z,7.80
2017-12-12T06:51:42.942Z,8.30
2017-12-12T06:54:12.739Z,8.10
2017-12-12T06:56:41.710Z,8.10
2017-12-12T06:59:10.704Z,7.60
2017-12-12T07:01:40.502Z,8.10
2017-12-12T07:04:09.935Z,7.07
2017-12-12T07:06:38.979Z,7.63
2017-12-12T07:09:08.766Z,8.20
2017-12-12T07:11:37.721Z,7.30
2017-12-12T07:14:06.721Z,10.13
2017-12-12T07:16:35.796Z,7.73
2017-12-12T07:19:05.527Z,7.77
2017-12-12T07:21:34.551Z,7.73
2017-12-12T07:24:03.561Z,8.77
2017-12-12T07:26:33.348Z,8.37
2017-12-12T07:29:02.331Z,7.70
2017-12-12T07:31:31.332Z,8.33
2017-12-12T07:34:00.291Z,7.60
2017-12-12T07:36:29.292Z,8.10
2017-12-12T07:38:58.724Z,8.13
2017-12-12T07:41:27.794Z,6.60
2017-12-12T07:43:57.529Z,8.07
2017-12-12T07:46:26.525Z,8.17
2017-12-12T07:48:55.587Z,8.80
2017-12-12T07:51:24.937Z,8.00
2017-12-12T07:53:54.330Z,7.80
2017-12-12T07:56:23.303Z,7.30
2017-12-12T07:58:52.325Z,8.20
2017-12-12T08:01:21.301Z,7.80
2017-12-12T08:03:50.701Z,7.53
2017-12-12T08:06:19.696Z,6.47
2017-12-12T08:08:49.434Z,7.70
2017-12-12T08:11:19.190Z,8.50
2017-12-12T08:13:48.173Z,7.50
2017-12-12T08:16:17.942Z,8.30
2017-12-12T08:18:47.688Z,8.17
2017-12-12T08:21:16.749Z,7.87
2017-12-12T08:23:46.499Z,7.80
2017-12-12T08:26:15.521Z,8.80
2017-12-12T08:28:44.554Z,7.83
2017-12-12T08:31:14.378Z,8.73
2017-12-12T08:33:43.511Z,7.03
2017-12-12T08:36:12.866Z,7.27
2017-12-12T08:38:42.625Z,6.70
2017-12-12T08:41:11.761Z,8.60
2017-12-12T08:43:40.747Z,7.50
2017-12-12T08:46:09.764Z,7.40
2017-12-12T08:48:38.723Z,6.17
2017-12-12T08:51:07.847Z,7.10
2017-12-12T08:53:37.740Z,6.43
2017-12-12T08:56:06.734Z,7.13
2017-12-12T08:58:36.487Z,6.73
2017-12-12T09:01:05.498Z,6.90
2017-12-12T09:03:34.497Z,6.60
2017-12-12T09:06:03.917Z,6.97
2017-12-12T09:08:32.902Z,6.57
2017-12-12T09:11:01.948Z,6.83
2017-12-12T09:13:31.720Z,6.77
2017-12-12T09:16:01.457Z,6.00
2017-12-12T09:18:31.224Z,6.13
2017-12-12T09:21:00.576Z,6.07
2017-12-12T09:23:29.537Z,4.80
2017-12-12T09:25:59.310Z,4.97
2017-12-12T09:28:28.281Z,6.40
2017-12-12T09:30:57.286Z,5.50
2017-12-12T09:33:26.730Z,5.53
2017-12-12T09:35:56.544Z,5.87
2017-12-12T09:38:25.766Z,7.33
2017-12-12T09:40:55.616Z,5.87
2017-12-12T09:43:24.601Z,5.73
2017-12-12T09:45:53.587Z,6.30
2017-12-12T09:48:22.645Z,5.90
2017-12-12T09:50:52.110Z,4.80
2017-12-12T09:53:21.880Z,5.77
2017-12-12T09:55:51.640Z,4.80
2017-12-12T09:58:20.641Z,5.40
2017-12-12T10:00:49.612Z,4.83
2017-12-12T10:03:18.617Z,4.00
2017-12-12T10:05:47.623Z,4.40
2017-12-12T10:08:16.639Z,4.57
2017-12-12T10:10:46.404Z,5.43
2017-12-12T10:13:15.393Z,5.60
2017-12-12T10:15:44.417Z,4.27
2017-12-12T10:18:13.406Z,3.83
2017-12-12T10:20:42.398Z,4.03
2017-12-12T10:23:11.790Z,4.40
2017-12-12T10:25:41.599Z,4.33
2017-12-12T10:28:10.628Z,3.80
2017-12-12T10:30:40.427Z,4.80
2017-12-12T10:33:09.527Z,4.53
2017-12-12T10:35:38.490Z,5.47
2017-12-12T10:38:07.489Z,4.43
2017-12-12T10:40:36.456Z,4.63
2017-12-12T10:43:06.224Z,4.63
2017-12-12T10:45:35.613Z,4.87
2017-12-12T10:48:04.620Z,4.20
2017-12-12T10:50:34.660Z,3.67
2017-12-12T10:53:03.608Z,4.13
2017-12-12T10:55:32.710Z,4.70
2017-12-12T10:58:02.460Z,4.50
2017-12-12T11:00:31.838Z,4.77
2017-12-12T11:03:03.357Z,4.40
2017-12-12T11:05:32.330Z,4.37
2017-12-12T11:08:01.989Z,5.73
2017-12-12T11:10:31.426Z,4.93
2017-12-12T11:13:01.218Z,5.20
2017-12-12T11:15:30.299Z,5.00
2017-12-12T11:18:00.074Z,4.87
2017-12-12T11:20:29.649Z,4.50
2017-12-12T11:22:58.617Z,6.30
2017-12-12T11:25:27.634Z,7.07
2017-12-12T11:27:56.608Z,6.23
2017-12-12T11:30:25.566Z,4.63
2017-12-12T11:32:54.581Z,5.07
2017-12-12T11:35:23.588Z,5.70
2017-12-12T11:37:52.584Z,5.20
2017-12-12T11:40:21.561Z,5.70
2017-12-12T11:42:50.566Z,5.43
2017-12-12T11:45:20.388Z,5.17
2017-12-12T11:47:49.361Z,4.77
2017-12-12T11:50:18.372Z,5.97
2017-12-12T11:52:47.740Z,4.37
2017-12-12T11:55:17.491Z,3.80
2017-12-12T11:57:47.215Z,4.27
2017-12-12T12:00:16.200Z,3.93
2017-12-12T12:02:45.578Z,3.80
2017-12-12T12:05:14.579Z,2.80
2017-12-12T12:07:43.591Z,4.13
2017-12-12T12:10:12.670Z,2.97
2017-12-12T12:12:41.633Z,2.80
2017-12-12T12:15:11.148Z,2.73
2017-12-12T12:17:40.547Z,2.63
2017-12-12T12:20:09.525Z,1.90
2017-12-12T12:22:39.295Z,2.20
2017-12-12T12:25:08.732Z,2.27
2017-12-12T12:27:37.744Z,1.90
2017-12-12T12:30:07.813Z,1.80
2017-12-12T12:32:36.789Z,1.83
2017-12-12T12:35:06.939Z,1.70
2017-12-12T12:37:35.940Z,1.80
2017-12-12T12:40:05.197Z,1.77
2017-12-12T12:42:34.143Z,1.87
2017-12-12T12:45:03.879Z,1.80
2017-12-12T12:47:32.851Z,1.97
2017-12-12T12:50:02.636Z,2.27
2017-12-12T12:52:31.668Z,1.80
2017-12-12T12:55:00.649Z,1.60
2017-12-12T12:57:29.629Z,2.80
2017-12-12T12:59:59.408Z,2.57
2017-12-12T13:02:28.390Z,2.63
2017-12-12T13:04:57.442Z,2.57
2017-12-12T13:07:26.427Z,2.53
2017-12-12T13:09:59.424Z,2.87
2017-12-12T13:12:28.677Z,3.83
2017-12-12T13:14:58.400Z,2.80
2017-12-12T13:17:27.949Z,3.30
2017-12-12T13:19:59.261Z,2.70
2017-12-12T13:22:28.815Z,3.03
2017-12-12T13:24:57.857Z,3.47
2017-12-12T13:27:26.903Z,4.10
2017-12-12T13:29:57.018Z,2.73
2017-12-12T13:32:26.593Z,2.63
2017-12-12T13:34:56.461Z,2.43
2017-12-12T13:37:25.432Z,2.60
2017-12-12T13:39:54.400Z,2.53
2017-12-12T13:42:23.380Z,2.57
2017-12-12T13:44:52.738Z,3.87
2017-12-12T13:47:21.723Z,3.40
2017-12-12T13:49:50.717Z,3.00
2017-12-12T13:52:19.838Z,2.63
2017-12-12T13:54:49.852Z,2.70
2017-12-12T13:57:19.592Z,3.27
2017-12-12T13:59:48.623Z,3.23
2017-12-12T14:02:17.696Z,3.90
2017-12-12T14:04:46.659Z,3.60
2017-12-12T14:07:16.399Z,3.40
2017-12-12T14:09:45.416Z,4.10
2017-12-12T14:12:14.372Z,3.33
2017-12-12T14:14:44.125Z,3.53
2017-12-12T14:17:13.527Z,3.40
2017-12-12T14:19:43.307Z,3.50
2017-12-12T14:22:12.313Z,3.97
2017-12-12T14:24:41.782Z,3.20
2017-12-12T14:27:11.613Z,4.13
2017-12-12T14:29:40.628Z,3.80
2017-12-12T14:32:09.627Z,3.53
2017-12-12T14:34:38.587Z,3.90
2017-12-12T14:37:07.595Z,4.33
2017-12-12T14:39:37.394Z,4.20
2017-12-12T14:42:06.359Z,4.67
2017-12-12T14:44:35.772Z,4.73
2017-12-12T14:47:05.534Z,4.37
2017-12-12T14:49:34.516Z,3.47
2017-12-12T14:52:03.562Z,3.60
2017-12-12T14:54:33.334Z,3.90
2017-12-12T14:57:02.346Z,4.10
2017-12-12T14:59:31.329Z,4.40
2017-12-12T15:02:00.320Z,4.20
2017-12-12T15:04:29.311Z,4.30
2017-12-12T15:06:58.302Z,3.63
2017-12-12T15:09:27.315Z,4.03
2017-12-12T15:11:56.388Z,4.50
2017-12-12T15:14:25.340Z,4.90
2017-12-12T15:16:54.345Z,3.93
2017-12-12T15:19:23.371Z,4.00
2017-12-12T15:21:52.458Z,4.30
2017-12-12T15:24:21.412Z,4.17
2017-12-12T15:26:50.839Z,4.10
2017-12-12T15:29:19.853Z,4.03
2017-12-12T15:31:49.600Z,4.40
2017-12-12T15:34:19.364Z,5.77
2017-12-12T15:36:48.347Z,8.17
2017-12-12T15:39:17.829Z,7.60
2017-12-12T15:41:47.559Z,6.60
2017-12-12T15:44:16.969Z,6.00
2017-12-12T15:46:46.373Z,6.07
2017-12-12T15:49:15.336Z,5.60
2017-12-12T15:51:45.098Z,5.87
2017-12-12T15:54:14.464Z,5.80
2017-12-12T15:56:43.452Z,7.30
2017-12-12T15:59:12.401Z,6.83
2017-12-12T16:01:41.401Z,5.47
2017-12-12T16:04:10.378Z,7.13
2017-12-12T16:06:40.117Z,5.60
2017-12-12T16:09:09.087Z,6.20
2017-12-12T16:11:38.843Z,8.63
2017-12-12T16:14:07.818Z,7.73
2017-12-12T16:16:36.830Z,7.20
2017-12-12T16:19:05.902Z,8.30
2017-12-12T16:21:35.665Z,7.30
2017-12-12T16:24:04.662Z,8.27
2017-12-12T16:26:34.433Z,7.83
2017-12-12T16:29:03.410Z,9.30
2017-12-12T16:31:32.771Z,8.57
2017-12-12T16:34:02.568Z,12.17
2017-12-12T16:36:32.352Z,13.47
2017-12-12T16:39:01.318Z,13.77
2017-12-12T16:41:30.294Z,8.83
2017-12-12T16:43:59.303Z,24.23
2017-12-12T16:46:28.353Z,10.20
2017-12-12T16:48:57.411Z,28.23
2017-12-12T16:51:26.420Z,23.43
2017-12-12T16:53:55.425Z,25.43
2017-12-12T16:56:24.431Z,11.87
2017-12-12T16:58:54.266Z,8.80
2017-12-12T17:01:23.251Z,11.00
2017-12-12T17:03:52.279Z,9.43
2017-12-12T17:06:22.043Z,8.80
2017-12-12T17:08:51.793Z,9.20
2017-12-12T17:11:20.762Z,9.60
2017-12-12T17:13:50.519Z,7.80
2017-12-12T17:16:19.548Z,6.77
2017-12-12T17:18:49.272Z,8.70
2017-12-12T17:21:18.262Z,7.37
2017-12-12T17:23:47.252Z,8.43
2017-12-12T17:26:16.627Z,8.77
2017-12-12T17:28:45.640Z,9.20
2017-12-12T17:31:15.398Z,9.47
2017-12-12T17:33:44.461Z,10.97
2017-12-12T17:36:13.848Z,8.80
2017-12-12T17:38:43.232Z,8.80
2017-12-12T17:41:12.241Z,9.37
2017-12-12T17:43:41.605Z,9.13
2017-12-12T17:46:10.639Z,8.03
2017-12-12T17:48:40.375Z,6.43
2017-12-12T17:51:09.390Z,9.00
2017-12-12T17:53:38.499Z,9.70
2017-12-12T17:56:07.543Z,9.00
2017-12-12T17:58:36.510Z,8.93
2017-12-12T18:01:05.467Z,8.50
2017-12-12T18:03:34.480Z,8.00
2017-12-12T18:06:03.529Z,8.73
2017-12-12T18:08:32.846Z,9.13
2017-12-12T18:11:02.620Z,9.00
2017-12-12T18:13:31.772Z,8.63
2017-12-12T18:16:01.540Z,10.57
2017-12-12T18:18:30.517Z,8.77
2017-12-12T18:20:59.517Z,7.80
2017-12-12T18:23:28.559Z,8.23
2017-12-12T18:25:58.466Z,7.80
2017-12-12T18:28:27.441Z,8.57
2017-12-12T18:30:56.425Z,9.00
2017-12-12T18:33:25.456Z,9.10
2017-12-12T18:35:54.653Z,8.53
2017-12-12T18:38:23.659Z,9.07
2017-12-12T18:40:52.645Z,7.53
2017-12-12T18:43:22.474Z,8.53
2017-12-12T18:45:51.852Z,9.60
2017-12-12T18:48:21.277Z,10.27
2017-12-12T18:50:50.317Z,10.20
2017-12-12T18:53:19.365Z,10.63
2017-12-12T18:55:49.193Z,11.63
2017-12-12T18:58:18.243Z,10.10
2017-12-12T19:00:47.579Z,11.50
2017-12-12T19:03:17.402Z,9.97
2017-12-12T19:05:47.210Z,9.90
2017-12-12T19:08:16.350Z,10.37
2017-12-12T19:10:45.771Z,10.17
2017-12-12T19:13:16.332Z,10.13
2017-12-12T19:15:45.403Z,10.30
2017-12-12T19:18:14.775Z,10.77
2017-12-12T19:20:43.814Z,9.97
2017-12-12T19:23:12.810Z,10.37
2017-12-12T19:25:42.894Z,11.13
2017-12-12T19:28:12.667Z,12.50
2017-12-12T19:30:42.532Z,10.93
2017-12-12T19:33:12.376Z,12.03
2017-12-12T19:35:42.202Z,13.03
2017-12-12T19:38:11.555Z,12.70
2017-12-12T19:40:40.570Z,11.87
2017-12-12T19:43:11.934Z,11.80
2017-12-12T19:45:42.220Z,12.83
2017-12-12T19:48:11.315Z,11.50
2017-12-12T19:50:40.441Z,11.37
2017-12-12T19:53:10.298Z,11.03
2017-12-12T19:55:39.346Z,12.70
2017-12-12T19:58:08.459Z,12.40
2017-12-12T20:00:39.738Z,11.67
2017-12-12T20:03:09.855Z,12.10
2017-12-12T20:05:38.957Z,12.10
2017-12-12T20:08:08.707Z,10.80
2017-12-12T20:10:38.559Z,12.30
2017-12-12T20:13:07.852Z,11.80
2017-12-12T20:15:37.794Z,14.03
2017-12-12T20:18:07.351Z,12.60
2017-12-12T20:20:39.300Z,12.30
2017-12-12T20:23:08.739Z,13.20
2017-12-12T20:25:38.589Z,12.87
2017-12-12T20:28:07.686Z,13.67
2017-12-12T20:30:36.751Z,12.50
2017-12-12T20:33:06.003Z,13.77
2017-12-12T20:35:36.407Z,16.60
2017-12-12T20:38:05.621Z,14.33
2017-12-12T20:40:35.515Z,14.70
2017-12-12T20:43:06.314Z,14.20
2017-12-12T20:45:35.866Z,13.63
2017-12-12T20:48:06.477Z,16.20
2017-12-12T20:50:35.808Z,15.70
2017-12-12T20:53:09.284Z,13.70
2017-12-12T20:55:38.366Z,15.80
2017-12-12T20:58:08.324Z,15.13
2017-12-12T21:00:37.387Z,17.60
2017-12-12T21:03:07.843Z,17.40
2017-12-12T21:05:38.628Z,16.23
2017-12-12T21:08:07.703Z,17.17
2017-12-12T21:10:37.778Z,17.40
2017-12-12T21:13:07.596Z,16.00
2017-12-12T21:15:37.427Z,17.63
2017-12-12T21:18:07.468Z,17.27
2017-12-12T21:20:36.531Z,19.10
2017-12-12T21:23:05.567Z,14.00
2017-12-12T21:25:34.620Z,20.07
2017-12-12T21:28:04.508Z,18.60
2017-12-12T21:30:34.309Z,18.57
2017-12-12T21:33:03.426Z,16.20
2017-12-12T21:35:33.168Z,20.17
2017-12-12T21:38:02.257Z,16.67
2017-12-12T21:40:31.669Z,21.10
2017-12-12T21:43:00.721Z,19.77
2017-12-12T21:45:31.096Z,21.30
2017-12-12T21:48:00.128Z,24.35
2017-12-12T21:50:29.579Z,21.13
2017-12-12T21:52:58.610Z,18.43
2017-12-12T21:55:28.524Z,20.20
2017-12-12T21:57:57.527Z,19.10
2017-12-12T22:00:27.336Z,19.63
2017-12-12T22:02:56.773Z,17.53
2017-12-12T22:05:28.309Z,19.07
2017-12-12T22:07:58.150Z,19.17
2017-12-12T22:10:27.161Z,18.93
2017-12-12T22:12:56.924Z,19.83
2017-12-12T22:15:26.349Z,16.70
2017-12-12T22:17:55.809Z,19.40
2017-12-12T22:20:24.831Z,19.00
2017-12-12T22:22:53.902Z,17.33
2017-12-12T22:25:23.654Z,18.03
2017-12-12T22:27:53.072Z,18.50
2017-12-12T22:30:22.852Z,18.63
2017-12-12T22:32:52.219Z,19.70
2017-12-12T22:35:21.240Z,19.63
2017-12-12T22:37:51.526Z,12.27
2017-12-12T22:40:20.543Z,18.60
2017-12-12T22:42:49.507Z,20.33
2017-12-12T22:45:18.509Z,15.30
2017-12-12T22:47:47.495Z,18.17
2017-12-12T22:50:16.534Z,21.33
2017-12-12T22:52:45.566Z,16.77
2017-12-12T22:55:14.736Z,18.57
2017-12-12T22:57:43.862Z,18.77
2017-12-12T23:00:27.767Z,19.23
2017-12-12T23:02:57.593Z,20.50
2017-12-12T23:05:26.603Z,19.60
2017-12-12T23:07:55.627Z,19.00
2017-12-12T23:10:24.630Z,20.67
2017-12-12T23:12:54.001Z,19.87
2017-12-12T23:15:23.014Z,17.00
2017-12-12T23:17:51.981Z,18.20
2017-12-12T23:20:21.762Z,17.43
2017-12-12T23:22:50.771Z,15.27
2017-12-12T23:25:19.724Z,19.57
2017-12-12T23:27:48.768Z,18.17
2017-12-12T23:30:18.174Z,17.83
2017-12-12T23:32:47.581Z,17.33
2017-12-12T23:35:16.568Z,13.90
2017-12-12T23:37:45.672Z,16.17
2017-12-12T23:40:14.678Z,18.97
2017-12-12T23:42:44.100Z,16.27
2017-12-12T23:45:13.085Z,15.57
2017-12-12T23:47:42.857Z,16.50
2017-12-12T23:50:11.851Z,19.50
2017-12-12T23:52:41.630Z,17.47
2017-12-12T23:55:10.639Z,17.77
2017-12-12T23:57:39.777Z,17.07
